sensor_id;sensor_type;location;lat;lon;timestamp;temperature;humidity
65231;DHT22;51813;40.666;16.602;2023-06-22T00:00:51;24.10;61.30
65231;DHT22;51813;40.666;16.602;2023-06-22T00:03:22;24.00;61.20
65231;DHT22;51813;40.666;16.602;2023-06-22T00:05:48;24.10;61.10
65231;DHT22;51813;40.666;16.602;2023-06-22T00:08:14;24.10;61.00
65231;DHT22;51813;40.666;16.602;2023-06-22T00:10:40;24.00;61.00
65231;DHT22;51813;40.666;16.602;2023-06-22T00:13:07;24.00;60.90
65231;DHT22;51813;40.666;16.602;2023-06-22T00:15:34;24.00;61.00
65231;DHT22;51813;40.666;16.602;2023-06-22T00:18:00;24.00;61.00
65231;DHT22;51813;40.666;16.602;2023-06-22T00:20:26;24.10;61.10
65231;DHT22;51813;40.666;16.602;2023-06-22T00:22:59;24.00;61.00
65231;DHT22;51813;40.666;16.602;2023-06-22T00:25:25;24.00;61.00
65231;DHT22;51813;40.666;16.602;2023-06-22T00:27:51;24.00;61.00
65231;DHT22;51813;40.666;16.602;2023-06-22T00:30:17;24.00;60.90
65231;DHT22;51813;40.666;16.602;2023-06-22T00:32:44;24.00;61.00
65231;DHT22;51813;40.666;16.602;2023-06-22T00:35:13;24.00;60.80
65231;DHT22;51813;40.666;16.602;2023-06-22T00:37:39;24.00;60.60
65231;DHT22;51813;40.666;16.602;2023-06-22T00:40:09;24.10;60.80
65231;DHT22;51813;40.666;16.602;2023-06-22T00:42:40;24.00;60.80
65231;DHT22;51813;40.666;16.602;2023-06-22T00:45:07;24.00;60.80
65231;DHT22;51813;40.666;16.602;2023-06-22T00:47:36;24.00;60.70
65231;DHT22;51813;40.666;16.602;2023-06-22T00:50:05;24.00;60.80
65231;DHT22;51813;40.666;16.602;2023-06-22T00:52:32;24.00;60.80
65231;DHT22;51813;40.666;16.602;2023-06-22T00:55:02;23.90;60.80
65231;DHT22;51813;40.666;16.602;2023-06-22T00:57:28;24.00;60.90
65231;DHT22;51813;40.666;16.602;2023-06-22T00:59:54;23.90;60.80
65231;DHT22;51813;40.666;16.602;2023-06-22T01:02:20;23.90;60.80
65231;DHT22;51813;40.666;16.602;2023-06-22T01:04:46;23.90;60.70
65231;DHT22;51813;40.666;16.602;2023-06-22T01:07:37;23.90;60.80
65231;DHT22;51813;40.666;16.602;2023-06-22T01:10:16;24.00;60.80
65231;DHT22;51813;40.666;16.602;2023-06-22T01:12:47;24.00;61.00
65231;DHT22;51813;40.666;16.602;2023-06-22T01:15:16;24.00;60.90
65231;DHT22;51813;40.666;16.602;2023-06-22T01:17:44;24.00;60.80
65231;DHT22;51813;40.666;16.602;2023-06-22T01:20:10;24.00;61.00
65231;DHT22;51813;40.666;16.602;2023-06-22T01:25:31;23.90;61.30
65231;DHT22;51813;40.666;16.602;2023-06-22T01:28:10;23.90;61.10
65231;DHT22;51813;40.666;16.602;2023-06-22T01:30:41;23.90;61.10
65231;DHT22;51813;40.666;16.602;2023-06-22T01:33:10;23.90;61.00
65231;DHT22;51813;40.666;16.602;2023-06-22T01:35:37;23.90;61.10
65231;DHT22;51813;40.666;16.602;2023-06-22T01:38:04;23.90;61.10
65231;DHT22;51813;40.666;16.602;2023-06-22T01:40:31;23.90;61.20
65231;DHT22;51813;40.666;16.602;2023-06-22T01:42:59;23.90;61.20
65231;DHT22;51813;40.666;16.602;2023-06-22T01:45:26;23.90;61.20
65231;DHT22;51813;40.666;16.602;2023-06-22T01:47:52;23.90;61.40
65231;DHT22;51813;40.666;16.602;2023-06-22T01:50:18;23.80;61.40
65231;DHT22;51813;40.666;16.602;2023-06-22T01:52:43;23.80;61.40
65231;DHT22;51813;40.666;16.602;2023-06-22T01:55:09;23.80;61.20
65231;DHT22;51813;40.666;16.602;2023-06-22T01:57:35;23.90;61.20
65231;DHT22;51813;40.666;16.602;2023-06-22T02:00:03;23.80;61.00
65231;DHT22;51813;40.666;16.602;2023-06-22T02:03:08;23.80;61.00
65231;DHT22;51813;40.666;16.602;2023-06-22T02:05:39;23.80;61.40
65231;DHT22;51813;40.666;16.602;2023-06-22T02:08:17;23.80;61.00
65231;DHT22;51813;40.666;16.602;2023-06-22T02:10:45;23.90;60.80
65231;DHT22;51813;40.666;16.602;2023-06-22T02:13:11;23.90;61.00
65231;DHT22;51813;40.666;16.602;2023-06-22T02:15:38;23.90;61.00
65231;DHT22;51813;40.666;16.602;2023-06-22T02:18:04;23.90;60.90
65231;DHT22;51813;40.666;16.602;2023-06-22T02:20:30;23.90;60.90
65231;DHT22;51813;40.666;16.602;2023-06-22T02:22:56;23.80;60.80
65231;DHT22;51813;40.666;16.602;2023-06-22T02:25:22;23.90;60.90
65231;DHT22;51813;40.666;16.602;2023-06-22T02:27:47;23.80;60.90
65231;DHT22;51813;40.666;16.602;2023-06-22T02:30:14;23.80;60.90
65231;DHT22;51813;40.666;16.602;2023-06-22T02:32:41;23.80;61.10
65231;DHT22;51813;40.666;16.602;2023-06-22T02:35:08;23.80;61.10
65231;DHT22;51813;40.666;16.602;2023-06-22T02:37:35;23.80;61.00
65231;DHT22;51813;40.666;16.602;2023-06-22T02:40:05;23.80;61.00
65231;DHT22;51813;40.666;16.602;2023-06-22T02:42:33;23.80;61.00
65231;DHT22;51813;40.666;16.602;2023-06-22T02:44:58;23.80;61.20
65231;DHT22;51813;40.666;16.602;2023-06-22T02:47:24;23.80;61.30
65231;DHT22;51813;40.666;16.602;2023-06-22T02:49:50;23.80;61.50
65231;DHT22;51813;40.666;16.602;2023-06-22T02:52:16;23.80;61.20
65231;DHT22;51813;40.666;16.602;2023-06-22T02:54:42;23.80;61.00
65231;DHT22;51813;40.666;16.602;2023-06-22T02:57:07;23.80;61.10
65231;DHT22;51813;40.666;16.602;2023-06-22T02:59:39;23.80;61.10
65231;DHT22;51813;40.666;16.602;2023-06-22T03:02:06;23.80;61.10
65231;DHT22;51813;40.666;16.602;2023-06-22T03:04:31;23.80;61.20
65231;DHT22;51813;40.666;16.602;2023-06-22T03:06:57;23.80;61.10
65231;DHT22;51813;40.666;16.602;2023-06-22T03:09:26;23.80;61.20
65231;DHT22;51813;40.666;16.602;2023-06-22T03:11:53;23.80;61.10
65231;DHT22;51813;40.666;16.602;2023-06-22T03:14:19;23.80;61.30
65231;DHT22;51813;40.666;16.602;2023-06-22T03:16:44;23.80;61.50
65231;DHT22;51813;40.666;16.602;2023-06-22T03:19:10;23.80;61.50
65231;DHT22;51813;40.666;16.602;2023-06-22T03:21:37;23.80;61.50
65231;DHT22;51813;40.666;16.602;2023-06-22T03:24:05;23.80;61.40
65231;DHT22;51813;40.666;16.602;2023-06-22T03:26:31;23.80;61.40
65231;DHT22;51813;40.666;16.602;2023-06-22T03:28:56;23.70;60.90
65231;DHT22;51813;40.666;16.602;2023-06-22T03:31:22;23.70;61.20
65231;DHT22;51813;40.666;16.602;2023-06-22T03:33:49;23.80;61.00
65231;DHT22;51813;40.666;16.602;2023-06-22T03:36:16;23.70;61.20
65231;DHT22;51813;40.666;16.602;2023-06-22T03:38:48;23.80;61.30
65231;DHT22;51813;40.666;16.602;2023-06-22T03:41:13;23.80;61.40
65231;DHT22;51813;40.666;16.602;2023-06-22T03:43:39;23.70;61.40
65231;DHT22;51813;40.666;16.602;2023-06-22T03:46:05;23.70;61.70
65231;DHT22;51813;40.666;16.602;2023-06-22T03:48:31;23.70;61.40
65231;DHT22;51813;40.666;16.602;2023-06-22T03:50:58;23.70;61.20
65231;DHT22;51813;40.666;16.602;2023-06-22T03:53:24;23.70;61.10
65231;DHT22;51813;40.666;16.602;2023-06-22T03:55:53;23.70;61.20
65231;DHT22;51813;40.666;16.602;2023-06-22T03:58:19;23.70;61.40
65231;DHT22;51813;40.666;16.602;2023-06-22T04:00:49;23.70;61.30
65231;DHT22;51813;40.666;16.602;2023-06-22T04:03:15;23.70;61.40
65231;DHT22;51813;40.666;16.602;2023-06-22T04:05:41;23.70;61.40
65231;DHT22;51813;40.666;16.602;2023-06-22T04:08:07;23.70;61.50
65231;DHT22;51813;40.666;16.602;2023-06-22T04:10:33;23.70;61.50
65231;DHT22;51813;40.666;16.602;2023-06-22T04:13:00;23.70;62.00
65231;DHT22;51813;40.666;16.602;2023-06-22T04:15:25;23.70;61.60
65231;DHT22;51813;40.666;16.602;2023-06-22T04:17:51;23.80;61.20
65231;DHT22;51813;40.666;16.602;2023-06-22T04:20:17;23.80;61.00
65231;DHT22;51813;40.666;16.602;2023-06-22T04:22:42;23.70;60.90
65231;DHT22;51813;40.666;16.602;2023-06-22T04:25:08;23.70;61.20
65231;DHT22;51813;40.666;16.602;2023-06-22T04:27:34;23.70;61.10
65231;DHT22;51813;40.666;16.602;2023-06-22T04:30:06;23.80;61.20
65231;DHT22;51813;40.666;16.602;2023-06-22T04:32:35;23.80;61.40
65231;DHT22;51813;40.666;16.602;2023-06-22T04:35:05;23.80;61.30
65231;DHT22;51813;40.666;16.602;2023-06-22T04:37:32;23.80;61.30
65231;DHT22;51813;40.666;16.602;2023-06-22T04:39:57;23.80;61.40
65231;DHT22;51813;40.666;16.602;2023-06-22T04:42:28;23.70;61.50
65231;DHT22;51813;40.666;16.602;2023-06-22T04:44:54;23.80;62.00
65231;DHT22;51813;40.666;16.602;2023-06-22T04:47:20;23.80;61.10
65231;DHT22;51813;40.666;16.602;2023-06-22T04:49:45;23.80;61.20
65231;DHT22;51813;40.666;16.602;2023-06-22T04:52:13;23.80;61.30
65231;DHT22;51813;40.666;16.602;2023-06-22T04:54:39;23.70;61.20
65231;DHT22;51813;40.666;16.602;2023-06-22T04:57:13;23.70;61.30
65231;DHT22;51813;40.666;16.602;2023-06-22T04:59:39;23.70;61.30
65231;DHT22;51813;40.666;16.602;2023-06-22T05:02:07;23.80;61.40
65231;DHT22;51813;40.666;16.602;2023-06-22T05:04:34;23.80;61.50
65231;DHT22;51813;40.666;16.602;2023-06-22T05:07:02;23.70;61.50
65231;DHT22;51813;40.666;16.602;2023-06-22T05:09:29;23.70;61.60
65231;DHT22;51813;40.666;16.602;2023-06-22T05:11:55;23.70;61.60
65231;DHT22;51813;40.666;16.602;2023-06-22T05:14:22;23.70;61.50
65231;DHT22;51813;40.666;16.602;2023-06-22T05:16:48;23.70;61.70
65231;DHT22;51813;40.666;16.602;2023-06-22T05:19:14;23.70;61.50
65231;DHT22;51813;40.666;16.602;2023-06-22T05:21:40;23.70;61.50
65231;DHT22;51813;40.666;16.602;2023-06-22T05:24:06;23.70;61.50
65231;DHT22;51813;40.666;16.602;2023-06-22T05:26:33;23.70;61.60
65231;DHT22;51813;40.666;16.602;2023-06-22T05:29:03;23.80;61.60
65231;DHT22;51813;40.666;16.602;2023-06-22T05:31:29;23.80;61.60
65231;DHT22;51813;40.666;16.602;2023-06-22T05:33:55;23.80;61.40
65231;DHT22;51813;40.666;16.602;2023-06-22T05:36:21;23.80;61.50
65231;DHT22;51813;40.666;16.602;2023-06-22T05:38:53;23.80;61.50
65231;DHT22;51813;40.666;16.602;2023-06-22T05:41:19;23.80;61.50
65231;DHT22;51813;40.666;16.602;2023-06-22T05:43:45;23.80;61.60
65231;DHT22;51813;40.666;16.602;2023-06-22T05:46:10;23.80;61.70
65231;DHT22;51813;40.666;16.602;2023-06-22T05:48:36;23.70;61.80
65231;DHT22;51813;40.666;16.602;2023-06-22T05:51:02;23.70;61.60
65231;DHT22;51813;40.666;16.602;2023-06-22T05:53:28;23.70;61.70
65231;DHT22;51813;40.666;16.602;2023-06-22T05:55:53;23.70;61.70
65231;DHT22;51813;40.666;16.602;2023-06-22T05:58:19;23.80;61.70
65231;DHT22;51813;40.666;16.602;2023-06-22T06:00:45;23.80;61.70
65231;DHT22;51813;40.666;16.602;2023-06-22T06:03:11;23.70;61.70
65231;DHT22;51813;40.666;16.602;2023-06-22T06:05:37;23.80;61.70
65231;DHT22;51813;40.666;16.602;2023-06-22T06:08:05;23.70;61.70
65231;DHT22;51813;40.666;16.602;2023-06-22T06:10:32;23.70;61.90
65231;DHT22;51813;40.666;16.602;2023-06-22T06:12:58;23.70;62.00
65231;DHT22;51813;40.666;16.602;2023-06-22T06:15:23;23.70;62.10
65231;DHT22;51813;40.666;16.602;2023-06-22T06:17:53;23.70;62.30
65231;DHT22;51813;40.666;16.602;2023-06-22T06:20:22;23.70;62.20
65231;DHT22;51813;40.666;16.602;2023-06-22T06:22:49;23.70;62.20
65231;DHT22;51813;40.666;16.602;2023-06-22T06:25:15;23.70;62.00
65231;DHT22;51813;40.666;16.602;2023-06-22T06:27:45;23.70;62.10
65231;DHT22;51813;40.666;16.602;2023-06-22T06:30:13;23.70;62.10
65231;DHT22;51813;40.666;16.602;2023-06-22T06:32:39;23.70;62.10
65231;DHT22;51813;40.666;16.602;2023-06-22T06:35:09;23.80;62.30
65231;DHT22;51813;40.666;16.602;2023-06-22T06:37:37;23.70;62.20
65231;DHT22;51813;40.666;16.602;2023-06-22T06:40:07;23.70;62.30
65231;DHT22;51813;40.666;16.602;2023-06-22T06:42:41;23.70;62.60
65231;DHT22;51813;40.666;16.602;2023-06-22T06:45:16;23.70;62.50
65231;DHT22;51813;40.666;16.602;2023-06-22T06:47:42;23.70;62.50
65231;DHT22;51813;40.666;16.602;2023-06-22T06:50:09;23.70;62.30
65231;DHT22;51813;40.666;16.602;2023-06-22T06:52:35;23.70;62.40
65231;DHT22;51813;40.666;16.602;2023-06-22T06:55:01;23.70;62.50
65231;DHT22;51813;40.666;16.602;2023-06-22T06:57:30;23.80;62.60
65231;DHT22;51813;40.666;16.602;2023-06-22T06:59:58;23.80;62.40
65231;DHT22;51813;40.666;16.602;2023-06-22T07:02:25;23.80;62.30
65231;DHT22;51813;40.666;16.602;2023-06-22T07:04:51;23.80;62.50
65231;DHT22;51813;40.666;16.602;2023-06-22T07:07:17;23.80;62.50
65231;DHT22;51813;40.666;16.602;2023-06-22T07:09:42;23.80;62.60
65231;DHT22;51813;40.666;16.602;2023-06-22T07:12:08;23.90;62.60
65231;DHT22;51813;40.666;16.602;2023-06-22T07:14:34;23.90;62.80
65231;DHT22;51813;40.666;16.602;2023-06-22T07:17:00;23.90;62.70
65231;DHT22;51813;40.666;16.602;2023-06-22T07:19:26;23.90;62.60
65231;DHT22;51813;40.666;16.602;2023-06-22T07:21:53;23.90;62.60
65231;DHT22;51813;40.666;16.602;2023-06-22T07:24:20;23.90;62.80
65231;DHT22;51813;40.666;16.602;2023-06-22T07:26:49;24.00;62.70
65231;DHT22;51813;40.666;16.602;2023-06-22T07:29:19;24.00;62.50
65231;DHT22;51813;40.666;16.602;2023-06-22T07:31:48;24.00;62.50
65231;DHT22;51813;40.666;16.602;2023-06-22T07:34:15;24.00;62.40
65231;DHT22;51813;40.666;16.602;2023-06-22T07:36:41;24.00;62.50
65231;DHT22;51813;40.666;16.602;2023-06-22T07:39:06;24.00;63.40
65231;DHT22;51813;40.666;16.602;2023-06-22T07:41:32;23.90;62.80
65231;DHT22;51813;40.666;16.602;2023-06-22T07:43:58;23.90;63.10
65231;DHT22;51813;40.666;16.602;2023-06-22T07:46:23;23.90;62.60
65231;DHT22;51813;40.666;16.602;2023-06-22T07:48:49;24.00;62.50
65231;DHT22;51813;40.666;16.602;2023-06-22T07:51:15;24.00;62.30
65231;DHT22;51813;40.666;16.602;2023-06-22T07:53:42;24.00;62.20
65231;DHT22;51813;40.666;16.602;2023-06-22T07:56:10;24.00;62.50
65231;DHT22;51813;40.666;16.602;2023-06-22T07:58:36;23.90;63.30
65231;DHT22;51813;40.666;16.602;2023-06-22T08:01:02;23.90;62.60
65231;DHT22;51813;40.666;16.602;2023-06-22T08:03:28;23.90;62.70
65231;DHT22;51813;40.666;16.602;2023-06-22T08:05:54;23.90;62.70
65231;DHT22;51813;40.666;16.602;2023-06-22T08:08:20;23.90;62.70
65231;DHT22;51813;40.666;16.602;2023-06-22T08:10:46;23.90;62.90
65231;DHT22;51813;40.666;16.602;2023-06-22T08:13:11;23.90;63.10
65231;DHT22;51813;40.666;16.602;2023-06-22T08:15:37;23.90;63.30
65231;DHT22;51813;40.666;16.602;2023-06-22T08:18:03;24.00;63.30
65231;DHT22;51813;40.666;16.602;2023-06-22T08:20:28;24.10;63.60
65231;DHT22;51813;40.666;16.602;2023-06-22T08:22:55;24.30;63.20
65231;DHT22;51813;40.666;16.602;2023-06-22T08:25:21;24.30;63.20
65231;DHT22;51813;40.666;16.602;2023-06-22T08:27:47;24.30;63.70
65231;DHT22;51813;40.666;16.602;2023-06-22T08:30:14;24.50;63.80
65231;DHT22;51813;40.666;16.602;2023-06-22T08:32:40;24.60;63.90
65231;DHT22;51813;40.666;16.602;2023-06-22T08:35:06;24.60;63.90
65231;DHT22;51813;40.666;16.602;2023-06-22T08:37:34;24.60;63.30
65231;DHT22;51813;40.666;16.602;2023-06-22T08:40:02;24.60;63.30
65231;DHT22;51813;40.666;16.602;2023-06-22T08:42:31;24.50;63.80
65231;DHT22;51813;40.666;16.602;2023-06-22T08:44:57;24.50;63.90
65231;DHT22;51813;40.666;16.602;2023-06-22T08:47:23;24.50;63.80
65231;DHT22;51813;40.666;16.602;2023-06-22T08:49:49;24.40;63.60
65231;DHT22;51813;40.666;16.602;2023-06-22T08:52:15;24.40;64.00
65231;DHT22;51813;40.666;16.602;2023-06-22T08:54:41;24.40;63.80
65231;DHT22;51813;40.666;16.602;2023-06-22T08:57:06;24.40;63.90
65231;DHT22;51813;40.666;16.602;2023-06-22T08:59:32;24.40;64.30
65231;DHT22;51813;40.666;16.602;2023-06-22T09:01:58;24.40;63.80
65231;DHT22;51813;40.666;16.602;2023-06-22T09:04:24;24.40;64.00
65231;DHT22;51813;40.666;16.602;2023-06-22T09:06:50;24.40;63.80
65231;DHT22;51813;40.666;16.602;2023-06-22T09:09:18;24.40;63.80
65231;DHT22;51813;40.666;16.602;2023-06-22T09:11:44;24.40;63.60
65231;DHT22;51813;40.666;16.602;2023-06-22T09:14:10;24.40;64.60
65231;DHT22;51813;40.666;16.602;2023-06-22T09:16:36;24.50;64.90
65231;DHT22;51813;40.666;16.602;2023-06-22T09:19:02;24.60;64.50
65231;DHT22;51813;40.666;16.602;2023-06-22T09:21:28;24.70;64.00
65231;DHT22;51813;40.666;16.602;2023-06-22T09:23:54;24.70;64.70
65231;DHT22;51813;40.666;16.602;2023-06-22T09:26:20;24.70;63.90
65231;DHT22;51813;40.666;16.602;2023-06-22T09:28:46;24.80;64.00
65231;DHT22;51813;40.666;16.602;2023-06-22T09:31:12;24.90;63.80
65231;DHT22;51813;40.666;16.602;2023-06-22T09:33:39;24.90;63.40
65231;DHT22;51813;40.666;16.602;2023-06-22T09:36:06;24.90;63.50
65231;DHT22;51813;40.666;16.602;2023-06-22T09:38:38;24.90;63.10
65231;DHT22;51813;40.666;16.602;2023-06-22T09:41:04;24.90;60.50
65231;DHT22;51813;40.666;16.602;2023-06-22T09:43:32;25.10;57.70
65231;DHT22;51813;40.666;16.602;2023-06-22T09:45:58;25.10;57.40
65231;DHT22;51813;40.666;16.602;2023-06-22T09:48:24;25.10;59.60
65231;DHT22;51813;40.666;16.602;2023-06-22T09:50:49;25.00;58.80
65231;DHT22;51813;40.666;16.602;2023-06-22T09:53:15;24.90;59.50
65231;DHT22;51813;40.666;16.602;2023-06-22T09:55:41;24.80;59.70
65231;DHT22;51813;40.666;16.602;2023-06-22T09:58:06;24.70;60.20
65231;DHT22;51813;40.666;16.602;2023-06-22T10:00:32;24.60;60.70
65231;DHT22;51813;40.666;16.602;2023-06-22T10:02:58;24.60;61.50
65231;DHT22;51813;40.666;16.602;2023-06-22T10:05:24;24.70;61.50
65231;DHT22;51813;40.666;16.602;2023-06-22T10:07:50;24.70;61.50
65231;DHT22;51813;40.666;16.602;2023-06-22T10:10:16;24.80;61.20
65231;DHT22;51813;40.666;16.602;2023-06-22T10:12:46;24.80;61.30
65231;DHT22;51813;40.666;16.602;2023-06-22T10:15:12;24.90;60.70
65231;DHT22;51813;40.666;16.602;2023-06-22T10:17:38;25.00;60.40
65231;DHT22;51813;40.666;16.602;2023-06-22T10:20:06;25.10;60.40
65231;DHT22;51813;40.666;16.602;2023-06-22T10:22:42;25.20;59.70
65231;DHT22;51813;40.666;16.602;2023-06-22T10:25:09;25.40;59.60
65231;DHT22;51813;40.666;16.602;2023-06-22T10:27:35;25.50;59.20
65231;DHT22;51813;40.666;16.602;2023-06-22T10:30:01;25.60;58.90
65231;DHT22;51813;40.666;16.602;2023-06-22T10:32:26;25.60;58.70
65231;DHT22;51813;40.666;16.602;2023-06-22T10:34:54;25.70;58.70
65231;DHT22;51813;40.666;16.602;2023-06-22T10:37:20;25.80;58.40
65231;DHT22;51813;40.666;16.602;2023-06-22T10:39:45;25.90;58.40
65231;DHT22;51813;40.666;16.602;2023-06-22T10:42:12;26.00;58.00
65231;DHT22;51813;40.666;16.602;2023-06-22T10:44:38;26.00;57.80
65231;DHT22;51813;40.666;16.602;2023-06-22T10:47:06;26.00;57.50
65231;DHT22;51813;40.666;16.602;2023-06-22T10:49:32;26.00;57.60
65231;DHT22;51813;40.666;16.602;2023-06-22T10:51:58;26.10;57.50
65231;DHT22;51813;40.666;16.602;2023-06-22T10:54:23;26.20;57.60
65231;DHT22;51813;40.666;16.602;2023-06-22T10:56:49;26.30;57.30
65231;DHT22;51813;40.666;16.602;2023-06-22T10:59:16;26.30;56.90
65231;DHT22;51813;40.666;16.602;2023-06-22T11:01:41;26.30;56.30
65231;DHT22;51813;40.666;16.602;2023-06-22T11:04:07;26.40;56.60
65231;DHT22;51813;40.666;16.602;2023-06-22T11:06:33;26.50;56.30
65231;DHT22;51813;40.666;16.602;2023-06-22T11:08:58;26.50;56.10
65231;DHT22;51813;40.666;16.602;2023-06-22T11:11:25;26.60;56.30
65231;DHT22;51813;40.666;16.602;2023-06-22T11:13:52;26.50;56.30
65231;DHT22;51813;40.666;16.602;2023-06-22T11:16:17;26.50;56.00
65231;DHT22;51813;40.666;16.602;2023-06-22T11:18:43;26.60;56.20
65231;DHT22;51813;40.666;16.602;2023-06-22T11:21:09;26.60;56.30
65231;DHT22;51813;40.666;16.602;2023-06-22T11:23:34;26.60;56.00
65231;DHT22;51813;40.666;16.602;2023-06-22T11:26:00;26.60;56.30
65231;DHT22;51813;40.666;16.602;2023-06-22T11:28:26;26.50;56.20
65231;DHT22;51813;40.666;16.602;2023-06-22T11:30:51;26.60;56.40
65231;DHT22;51813;40.666;16.602;2023-06-22T11:33:17;26.50;56.00
65231;DHT22;51813;40.666;16.602;2023-06-22T11:35:43;26.60;56.20
65231;DHT22;51813;40.666;16.602;2023-06-22T11:38:08;26.60;55.30
65231;DHT22;51813;40.666;16.602;2023-06-22T11:40:34;26.70;55.70
65231;DHT22;51813;40.666;16.602;2023-06-22T11:43:00;26.80;55.40
65231;DHT22;51813;40.666;16.602;2023-06-22T11:45:26;26.90;55.20
65231;DHT22;51813;40.666;16.602;2023-06-22T11:47:52;26.80;55.50
65231;DHT22;51813;40.666;16.602;2023-06-22T11:50:18;26.70;55.20
65231;DHT22;51813;40.666;16.602;2023-06-22T11:52:43;26.80;54.90
65231;DHT22;51813;40.666;16.602;2023-06-22T11:55:09;26.80;55.10
65231;DHT22;51813;40.666;16.602;2023-06-22T11:57:39;26.80;55.30
65231;DHT22;51813;40.666;16.602;2023-06-22T12:00:17;26.70;55.30
65231;DHT22;51813;40.666;16.602;2023-06-22T12:02:44;26.70;55.20
65231;DHT22;51813;40.666;16.602;2023-06-22T12:05:10;26.70;55.50
65231;DHT22;51813;40.666;16.602;2023-06-22T12:07:36;26.60;55.50
65231;DHT22;51813;40.666;16.602;2023-06-22T12:10:03;26.70;55.20
65231;DHT22;51813;40.666;16.602;2023-06-22T12:12:29;26.80;55.40
65231;DHT22;51813;40.666;16.602;2023-06-22T12:14:54;26.80;55.30
65231;DHT22;51813;40.666;16.602;2023-06-22T12:17:20;26.80;55.70
65231;DHT22;51813;40.666;16.602;2023-06-22T12:19:46;26.80;56.10
65231;DHT22;51813;40.666;16.602;2023-06-22T12:22:11;26.90;55.70
65231;DHT22;51813;40.666;16.602;2023-06-22T12:24:37;27.00;55.30
65231;DHT22;51813;40.666;16.602;2023-06-22T12:27:03;27.00;55.30
65231;DHT22;51813;40.666;16.602;2023-06-22T12:29:29;27.10;55.00
65231;DHT22;51813;40.666;16.602;2023-06-22T12:31:55;27.10;55.00
65231;DHT22;51813;40.666;16.602;2023-06-22T12:34:21;27.10;55.50
65231;DHT22;51813;40.666;16.602;2023-06-22T12:36:47;27.10;54.70
65231;DHT22;51813;40.666;16.602;2023-06-22T12:39:14;27.20;55.40
65231;DHT22;51813;40.666;16.602;2023-06-22T12:41:39;27.10;56.40
65231;DHT22;51813;40.666;16.602;2023-06-22T12:44:05;27.10;55.40
65231;DHT22;51813;40.666;16.602;2023-06-22T12:46:31;27.10;55.40
65231;DHT22;51813;40.666;16.602;2023-06-22T12:49:03;27.10;55.40
65231;DHT22;51813;40.666;16.602;2023-06-22T12:51:29;27.20;54.90
65231;DHT22;51813;40.666;16.602;2023-06-22T12:53:55;27.20;54.60
65231;DHT22;51813;40.666;16.602;2023-06-22T12:56:21;27.10;55.20
65231;DHT22;51813;40.666;16.602;2023-06-22T12:58:47;27.20;56.00
65231;DHT22;51813;40.666;16.602;2023-06-22T13:01:13;27.20;55.70
65231;DHT22;51813;40.666;16.602;2023-06-22T13:03:38;27.30;55.50
65231;DHT22;51813;40.666;16.602;2023-06-22T13:06:04;27.20;56.00
65231;DHT22;51813;40.666;16.602;2023-06-22T13:08:30;27.20;56.30
65231;DHT22;51813;40.666;16.602;2023-06-22T13:10:56;27.20;56.50
65231;DHT22;51813;40.666;16.602;2023-06-22T13:13:25;27.20;56.50
65231;DHT22;51813;40.666;16.602;2023-06-22T13:15:52;27.20;56.40
65231;DHT22;51813;40.666;16.602;2023-06-22T13:18:19;27.20;56.00
65231;DHT22;51813;40.666;16.602;2023-06-22T13:20:45;27.20;55.40
65231;DHT22;51813;40.666;16.602;2023-06-22T13:23:11;27.20;55.20
65231;DHT22;51813;40.666;16.602;2023-06-22T13:25:37;27.20;55.50
65231;DHT22;51813;40.666;16.602;2023-06-22T13:28:03;27.20;55.30
65231;DHT22;51813;40.666;16.602;2023-06-22T13:30:28;27.20;55.50
65231;DHT22;51813;40.666;16.602;2023-06-22T13:32:55;27.10;55.30
65231;DHT22;51813;40.666;16.602;2023-06-22T13:35:21;27.10;55.70
65231;DHT22;51813;40.666;16.602;2023-06-22T13:37:46;27.10;55.60
65231;DHT22;51813;40.666;16.602;2023-06-22T13:40:12;27.00;55.80
65231;DHT22;51813;40.666;16.602;2023-06-22T13:42:38;27.00;56.00
65231;DHT22;51813;40.666;16.602;2023-06-22T13:45:04;27.10;55.60
65231;DHT22;51813;40.666;16.602;2023-06-22T13:47:30;27.20;55.40
65231;DHT22;51813;40.666;16.602;2023-06-22T13:49:56;27.20;55.30
65231;DHT22;51813;40.666;16.602;2023-06-22T13:52:23;27.30;55.00
65231;DHT22;51813;40.666;16.602;2023-06-22T13:54:48;27.40;55.10
65231;DHT22;51813;40.666;16.602;2023-06-22T13:57:14;27.30;54.80
65231;DHT22;51813;40.666;16.602;2023-06-22T13:59:40;27.30;54.80
65231;DHT22;51813;40.666;16.602;2023-06-22T14:02:06;27.40;54.50
65231;DHT22;51813;40.666;16.602;2023-06-22T14:04:32;27.40;54.80
65231;DHT22;51813;40.666;16.602;2023-06-22T14:06:58;27.40;54.60
65231;DHT22;51813;40.666;16.602;2023-06-22T14:09:23;27.40;54.50
65231;DHT22;51813;40.666;16.602;2023-06-22T14:11:49;27.50;54.50
65231;DHT22;51813;40.666;16.602;2023-06-22T14:14:15;27.50;54.20
65231;DHT22;51813;40.666;16.602;2023-06-22T14:16:40;27.30;54.60
65231;DHT22;51813;40.666;16.602;2023-06-22T14:19:06;27.30;54.80
65231;DHT22;51813;40.666;16.602;2023-06-22T14:21:32;27.40;55.00
65231;DHT22;51813;40.666;16.602;2023-06-22T14:23:57;27.40;54.70
65231;DHT22;51813;40.666;16.602;2023-06-22T14:26:23;27.40;54.70
65231;DHT22;51813;40.666;16.602;2023-06-22T14:28:49;27.40;54.80
65231;DHT22;51813;40.666;16.602;2023-06-22T14:31:18;27.40;54.60
65231;DHT22;51813;40.666;16.602;2023-06-22T14:33:46;27.50;54.60
65231;DHT22;51813;40.666;16.602;2023-06-22T14:36:13;27.50;55.00
65231;DHT22;51813;40.666;16.602;2023-06-22T14:38:39;27.50;54.30
65231;DHT22;51813;40.666;16.602;2023-06-22T14:41:05;27.40;54.10
65231;DHT22;51813;40.666;16.602;2023-06-22T14:43:30;27.50;54.40
65231;DHT22;51813;40.666;16.602;2023-06-22T14:45:56;27.50;54.50
65231;DHT22;51813;40.666;16.602;2023-06-22T14:48:22;27.50;54.10
65231;DHT22;51813;40.666;16.602;2023-06-22T14:50:47;27.50;54.50
65231;DHT22;51813;40.666;16.602;2023-06-22T14:53:13;27.40;54.60
65231;DHT22;51813;40.666;16.602;2023-06-22T14:55:40;27.50;54.70
65231;DHT22;51813;40.666;16.602;2023-06-22T14:58:05;27.60;54.00
65231;DHT22;51813;40.666;16.602;2023-06-22T15:00:31;27.70;54.60
65231;DHT22;51813;40.666;16.602;2023-06-22T15:02:57;27.60;54.10
65231;DHT22;51813;40.666;16.602;2023-06-22T15:05:24;27.70;54.00
65231;DHT22;51813;40.666;16.602;2023-06-22T15:07:50;27.60;53.90
65231;DHT22;51813;40.666;16.602;2023-06-22T15:10:16;27.50;54.10
65231;DHT22;51813;40.666;16.602;2023-06-22T15:12:41;27.30;54.50
65231;DHT22;51813;40.666;16.602;2023-06-22T15:15:09;27.40;54.30